This is the latest recevied weather packets stored in our database for station/object 9W2CEW-1. If no packets are shown the sender has not sent any weather packets the latest 10 day(s).
| Time | Temp. | Humidity | Pressure | Rain* | Wind** | Luminosity | Snow |
|---|---|---|---|---|---|---|---|
| 1777539839 | 28.33° C | 91% | 1001.4 hPa | - | - | - | - |
| 1777538980 | 28.33° C | 93% | 1000.9 hPa | - | - | - | - |
| 1777538081 | 27.78° C | 95% | 1000.9 hPa | - | - | - | - |
| 1777537198 | 30.56° C | 77% | 1001.2 hPa | - | - | - | - |
| 1777537139 | 30.56° C | 77% | 1001.2 hPa | - | - | - | - |
| 1777536572 | 26.11° C | 100% | 1001.6 hPa | - | - | - | - |
| 1777535753 | 30° C | 80% | 1001 hPa | - | - | - | - |
| 1777535669 | 30° C | 80% | 1001 hPa | - | - | - | - |
| 1777534769 | 32.78° C | 67% | 1001.2 hPa | - | - | - | - |
| 1777533872 | 34.44° C | 58% | 1001.3 hPa | - | - | - | - |
| 1777533060 | 36.67° C | 46% | 1001.6 hPa | - | - | - | - |
| 1777532972 | 36.67° C | 46% | 1001.6 hPa | - | - | - | - |
| 1777532072 | 37.78° C | 44% | 1001.7 hPa | - | - | - | - |
| 1777531172 | 37.22° C | 45% | 1001.9 hPa | - | - | - | - |
| 1777530412 | 36.11° C | 48% | 1002.2 hPa | - | - | - | - |
| 1777530272 | 36.11° C | 48% | 1002.2 hPa | - | - | - | - |
| 1777529486 | 37.78° C | 43% | 1002.4 hPa | - | - | - | - |
| 1777529372 | 37.78° C | 43% | 1002.4 hPa | - | - | - | - |
| 1777528471 | 38.33° C | 42% | 1002.7 hPa | - | - | - | - |
| 1777527635 | 37.22° C | 47% | 1002.9 hPa | - | - | - | - |
| 1777527571 | 37.22° C | 47% | 1002.9 hPa | - | - | - | - |
| 1777526671 | 37.78° C | 44% | 1003.3 hPa | - | - | - | - |
| 1777525771 | 36.67° C | 47% | 1003.7 hPa | - | - | - | - |
| 1777524871 | 38.33° C | 44% | 1003.9 hPa | - | - | - | - |
| 1777523971 | 39.44° C | 40% | 1004.2 hPa | - | - | - | - |
* Rain since midnight (hover to see other rain measurements)
** Current wind speed in m/s (hover to see current wind gust speed)